sensor_id;sensor_type;location;lat;lon;timestamp;P1;durP1;ratioP1;P2;durP2;ratioP2
14776;SDS011;7480;43.124;25.686;2024-01-15T00:02:03;10.33;;;4.40;;
14776;SDS011;7480;43.124;25.686;2024-01-15T00:04:29;9.03;;;4.50;;
14776;SDS011;7480;43.124;25.686;2024-01-15T00:06:56;5.83;;;3.27;;
14776;SDS011;7480;43.124;25.686;2024-01-15T00:09:23;9.40;;;4.53;;
14776;SDS011;7480;43.124;25.686;2024-01-15T00:11:50;8.70;;;4.20;;
14776;SDS011;7480;43.124;25.686;2024-01-15T00:14:16;3.27;;;2.17;;
14776;SDS011;7480;43.124;25.686;2024-01-15T00:16:56;6.90;;;2.93;;
14776;SDS011;7480;43.124;25.686;2024-01-15T00:19:23;7.30;;;3.57;;
14776;SDS011;7480;43.124;25.686;2024-01-15T00:21:50;15.00;;;6.40;;
14776;SDS011;7480;43.124;25.686;2024-01-15T00:24:17;7.00;;;3.67;;
14776;SDS011;7480;43.124;25.686;2024-01-15T00:26:44;5.73;;;2.97;;
14776;SDS011;7480;43.124;25.686;2024-01-15T00:29:10;3.60;;;2.43;;
14776;SDS011;7480;43.124;25.686;2024-01-15T00:31:37;7.40;;;3.70;;
14776;SDS011;7480;43.124;25.686;2024-01-15T00:34:03;15.20;;;6.47;;
14776;SDS011;7480;43.124;25.686;2024-01-15T00:36:30;9.03;;;4.30;;
14776;SDS011;7480;43.124;25.686;2024-01-15T00:38:57;12.77;;;5.27;;
14776;SDS011;7480;43.124;25.686;2024-01-15T00:41:24;12.07;;;5.10;;
14776;SDS011;7480;43.124;25.686;2024-01-15T00:43:50;8.47;;;3.63;;
14776;SDS011;7480;43.124;25.686;2024-01-15T00:46:17;5.27;;;2.77;;
14776;SDS011;7480;43.124;25.686;2024-01-15T00:48:44;7.70;;;4.60;;
14776;SDS011;7480;43.124;25.686;2024-01-15T00:51:11;5.03;;;2.80;;
14776;SDS011;7480;43.124;25.686;2024-01-15T00:53:37;17.17;;;8.17;;
14776;SDS011;7480;43.124;25.686;2024-01-15T00:56:04;7.20;;;3.53;;
14776;SDS011;7480;43.124;25.686;2024-01-15T00:58:30;2.57;;;2.00;;
14776;SDS011;7480;43.124;25.686;2024-01-15T01:00:57;5.10;;;2.87;;
14776;SDS011;7480;43.124;25.686;2024-01-15T01:03:24;8.57;;;4.43;;
14776;SDS011;7480;43.124;25.686;2024-01-15T01:05:50;8.50;;;3.83;;
14776;SDS011;7480;43.124;25.686;2024-01-15T01:08:17;2.30;;;1.90;;
14776;SDS011;7480;43.124;25.686;2024-01-15T01:10:44;4.80;;;2.70;;
14776;SDS011;7480;43.124;25.686;2024-01-15T01:13:10;8.90;;;3.63;;
14776;SDS011;7480;43.124;25.686;2024-01-15T01:15:37;5.40;;;3.43;;
14776;SDS011;7480;43.124;25.686;2024-01-15T01:18:05;6.83;;;3.27;;
14776;SDS011;7480;43.124;25.686;2024-01-15T01:20:32;3.67;;;2.60;;
14776;SDS011;7480;43.124;25.686;2024-01-15T01:22:58;5.17;;;3.10;;
14776;SDS011;7480;43.124;25.686;2024-01-15T01:25:26;4.37;;;2.77;;
14776;SDS011;7480;43.124;25.686;2024-01-15T01:27:52;4.90;;;2.10;;
14776;SDS011;7480;43.124;25.686;2024-01-15T01:30:19;5.03;;;2.87;;
14776;SDS011;7480;43.124;25.686;2024-01-15T01:32:46;3.13;;;1.93;;
14776;SDS011;7480;43.124;25.686;2024-01-15T01:35:12;4.17;;;2.70;;
14776;SDS011;7480;43.124;25.686;2024-01-15T01:37:39;3.33;;;2.50;;
14776;SDS011;7480;43.124;25.686;2024-01-15T01:40:06;4.30;;;2.20;;
14776;SDS011;7480;43.124;25.686;2024-01-15T01:42:33;4.30;;;2.63;;
14776;SDS011;7480;43.124;25.686;2024-01-15T01:44:59;6.23;;;2.50;;
14776;SDS011;7480;43.124;25.686;2024-01-15T01:47:26;5.37;;;2.00;;
14776;SDS011;7480;43.124;25.686;2024-01-15T01:49:53;10.93;;;5.97;;
14776;SDS011;7480;43.124;25.686;2024-01-15T01:52:20;7.23;;;3.30;;
14776;SDS011;7480;43.124;25.686;2024-01-15T01:54:47;4.13;;;2.50;;
14776;SDS011;7480;43.124;25.686;2024-01-15T01:57:14;4.23;;;2.60;;
14776;SDS011;7480;43.124;25.686;2024-01-15T01:59:41;4.57;;;2.40;;
14776;SDS011;7480;43.124;25.686;2024-01-15T02:02:08;4.83;;;2.40;;
14776;SDS011;7480;43.124;25.686;2024-01-15T02:04:34;3.10;;;2.20;;
14776;SDS011;7480;43.124;25.686;2024-01-15T02:07:03;3.13;;;2.33;;
14776;SDS011;7480;43.124;25.686;2024-01-15T02:09:30;6.17;;;2.37;;
14776;SDS011;7480;43.124;25.686;2024-01-15T02:11:58;2.43;;;2.20;;
14776;SDS011;7480;43.124;25.686;2024-01-15T02:14:25;2.03;;;1.80;;
14776;SDS011;7480;43.124;25.686;2024-01-15T02:16:52;3.87;;;2.17;;
14776;SDS011;7480;43.124;25.686;2024-01-15T02:19:18;2.63;;;2.10;;
14776;SDS011;7480;43.124;25.686;2024-01-15T02:21:45;4.00;;;2.10;;
14776;SDS011;7480;43.124;25.686;2024-01-15T02:24:12;3.70;;;2.53;;
14776;SDS011;7480;43.124;25.686;2024-01-15T02:26:39;4.23;;;1.80;;
14776;SDS011;7480;43.124;25.686;2024-01-15T02:29:06;3.97;;;2.00;;
14776;SDS011;7480;43.124;25.686;2024-01-15T02:31:35;3.20;;;2.10;;
14776;SDS011;7480;43.124;25.686;2024-01-15T02:34:01;2.97;;;1.73;;
14776;SDS011;7480;43.124;25.686;2024-01-15T02:36:28;3.57;;;2.03;;
14776;SDS011;7480;43.124;25.686;2024-01-15T02:38:55;3.23;;;1.77;;
14776;SDS011;7480;43.124;25.686;2024-01-15T02:41:21;3.87;;;1.97;;
14776;SDS011;7480;43.124;25.686;2024-01-15T02:43:48;2.50;;;1.60;;
14776;SDS011;7480;43.124;25.686;2024-01-15T02:46:14;3.37;;;2.20;;
14776;SDS011;7480;43.124;25.686;2024-01-15T02:48:42;2.10;;;1.80;;
14776;SDS011;7480;43.124;25.686;2024-01-15T02:51:09;3.73;;;3.10;;
14776;SDS011;7480;43.124;25.686;2024-01-15T02:53:36;3.53;;;2.27;;
14776;SDS011;7480;43.124;25.686;2024-01-15T02:56:03;4.43;;;1.93;;
14776;SDS011;7480;43.124;25.686;2024-01-15T02:58:30;5.50;;;3.67;;
14776;SDS011;7480;43.124;25.686;2024-01-15T03:00:57;3.77;;;2.23;;
14776;SDS011;7480;43.124;25.686;2024-01-15T03:03:24;5.07;;;2.60;;
14776;SDS011;7480;43.124;25.686;2024-01-15T03:05:51;3.63;;;2.53;;
14776;SDS011;7480;43.124;25.686;2024-01-15T03:08:18;4.37;;;2.33;;
14776;SDS011;7480;43.124;25.686;2024-01-15T03:10:45;3.80;;;2.40;;
14776;SDS011;7480;43.124;25.686;2024-01-15T03:13:11;3.17;;;2.47;;
14776;SDS011;7480;43.124;25.686;2024-01-15T03:15:38;7.10;;;4.77;;
14776;SDS011;7480;43.124;25.686;2024-01-15T03:18:05;6.63;;;3.60;;
14776;SDS011;7480;43.124;25.686;2024-01-15T03:20:32;9.30;;;5.17;;
14776;SDS011;7480;43.124;25.686;2024-01-15T03:22:59;6.87;;;4.03;;
14776;SDS011;7480;43.124;25.686;2024-01-15T03:25:25;11.10;;;6.30;;
14776;SDS011;7480;43.124;25.686;2024-01-15T03:27:52;6.70;;;3.67;;
14776;SDS011;7480;43.124;25.686;2024-01-15T03:30:18;14.30;;;5.93;;
14776;SDS011;7480;43.124;25.686;2024-01-15T03:32:45;8.20;;;3.70;;
14776;SDS011;7480;43.124;25.686;2024-01-15T03:35:14;5.53;;;3.30;;
14776;SDS011;7480;43.124;25.686;2024-01-15T03:37:40;4.40;;;2.57;;
14776;SDS011;7480;43.124;25.686;2024-01-15T03:40:07;7.60;;;4.27;;
14776;SDS011;7480;43.124;25.686;2024-01-15T03:42:34;5.50;;;3.87;;
14776;SDS011;7480;43.124;25.686;2024-01-15T03:45:01;4.50;;;2.67;;
14776;SDS011;7480;43.124;25.686;2024-01-15T03:47:27;4.57;;;3.10;;
14776;SDS011;7480;43.124;25.686;2024-01-15T03:49:54;4.37;;;2.73;;
14776;SDS011;7480;43.124;25.686;2024-01-15T03:52:21;6.57;;;5.50;;
14776;SDS011;7480;43.124;25.686;2024-01-15T03:54:47;6.47;;;3.47;;
14776;SDS011;7480;43.124;25.686;2024-01-15T03:57:14;8.33;;;4.90;;
14776;SDS011;7480;43.124;25.686;2024-01-15T03:59:41;19.73;;;10.90;;
14776;SDS011;7480;43.124;25.686;2024-01-15T04:02:08;12.03;;;6.80;;
14776;SDS011;7480;43.124;25.686;2024-01-15T04:04:34;8.00;;;4.73;;
14776;SDS011;7480;43.124;25.686;2024-01-15T04:07:01;6.03;;;2.43;;
14776;SDS011;7480;43.124;25.686;2024-01-15T04:09:28;11.23;;;3.70;;
14776;SDS011;7480;43.124;25.686;2024-01-15T04:11:55;8.33;;;3.17;;
14776;SDS011;7480;43.124;25.686;2024-01-15T04:14:21;5.67;;;3.67;;
14776;SDS011;7480;43.124;25.686;2024-01-15T04:16:48;11.43;;;4.50;;
14776;SDS011;7480;43.124;25.686;2024-01-15T04:19:14;17.97;;;5.80;;
14776;SDS011;7480;43.124;25.686;2024-01-15T04:21:41;5.10;;;3.80;;
14776;SDS011;7480;43.124;25.686;2024-01-15T04:24:08;14.97;;;7.47;;
14776;SDS011;7480;43.124;25.686;2024-01-15T04:26:34;12.10;;;6.80;;
14776;SDS011;7480;43.124;25.686;2024-01-15T04:29:01;12.13;;;7.73;;
14776;SDS011;7480;43.124;25.686;2024-01-15T04:31:28;17.73;;;11.50;;
14776;SDS011;7480;43.124;25.686;2024-01-15T04:33:54;13.40;;;8.77;;
14776;SDS011;7480;43.124;25.686;2024-01-15T04:36:21;9.30;;;5.37;;
14776;SDS011;7480;43.124;25.686;2024-01-15T04:38:48;4.57;;;3.40;;
14776;SDS011;7480;43.124;25.686;2024-01-15T04:41:15;8.33;;;4.77;;
14776;SDS011;7480;43.124;25.686;2024-01-15T04:43:42;7.90;;;4.20;;
14776;SDS011;7480;43.124;25.686;2024-01-15T04:46:09;12.87;;;7.33;;
14776;SDS011;7480;43.124;25.686;2024-01-15T04:48:36;12.20;;;6.70;;
14776;SDS011;7480;43.124;25.686;2024-01-15T04:51:08;10.70;;;5.83;;
14776;SDS011;7480;43.124;25.686;2024-01-15T04:53:35;16.63;;;9.27;;
14776;SDS011;7480;43.124;25.686;2024-01-15T04:56:02;20.73;;;10.33;;
14776;SDS011;7480;43.124;25.686;2024-01-15T04:58:29;12.97;;;10.97;;
14776;SDS011;7480;43.124;25.686;2024-01-15T05:00:55;18.50;;;11.80;;
14776;SDS011;7480;43.124;25.686;2024-01-15T05:03:22;23.53;;;11.33;;
14776;SDS011;7480;43.124;25.686;2024-01-15T05:05:49;15.20;;;9.00;;
14776;SDS011;7480;43.124;25.686;2024-01-15T05:08:16;24.83;;;11.40;;
14776;SDS011;7480;43.124;25.686;2024-01-15T05:10:43;20.17;;;11.67;;
14776;SDS011;7480;43.124;25.686;2024-01-15T05:13:10;18.63;;;10.23;;
14776;SDS011;7480;43.124;25.686;2024-01-15T05:15:36;12.03;;;7.93;;
14776;SDS011;7480;43.124;25.686;2024-01-15T05:18:03;38.40;;;21.17;;
14776;SDS011;7480;43.124;25.686;2024-01-15T05:20:30;49.17;;;26.20;;
14776;SDS011;7480;43.124;25.686;2024-01-15T05:22:57;37.43;;;21.43;;
14776;SDS011;7480;43.124;25.686;2024-01-15T05:25:24;25.70;;;12.30;;
14776;SDS011;7480;43.124;25.686;2024-01-15T05:27:50;24.40;;;12.67;;
14776;SDS011;7480;43.124;25.686;2024-01-15T05:30:17;21.03;;;12.73;;
14776;SDS011;7480;43.124;25.686;2024-01-15T05:32:44;28.43;;;15.37;;
14776;SDS011;7480;43.124;25.686;2024-01-15T05:35:10;26.13;;;15.73;;
14776;SDS011;7480;43.124;25.686;2024-01-15T05:37:38;32.73;;;16.70;;
14776;SDS011;7480;43.124;25.686;2024-01-15T05:40:05;36.33;;;14.00;;
14776;SDS011;7480;43.124;25.686;2024-01-15T05:42:31;16.77;;;10.53;;
14776;SDS011;7480;43.124;25.686;2024-01-15T05:44:58;10.67;;;5.57;;
14776;SDS011;7480;43.124;25.686;2024-01-15T05:47:26;15.63;;;6.63;;
14776;SDS011;7480;43.124;25.686;2024-01-15T05:49:52;12.00;;;5.27;;
14776;SDS011;7480;43.124;25.686;2024-01-15T05:52:19;12.93;;;5.87;;
14776;SDS011;7480;43.124;25.686;2024-01-15T05:54:48;10.17;;;6.07;;
14776;SDS011;7480;43.124;25.686;2024-01-15T05:57:15;10.00;;;5.03;;
14776;SDS011;7480;43.124;25.686;2024-01-15T05:59:42;17.00;;;7.27;;
14776;SDS011;7480;43.124;25.686;2024-01-15T06:02:09;12.83;;;7.37;;
14776;SDS011;7480;43.124;25.686;2024-01-15T06:04:36;16.03;;;9.20;;
14776;SDS011;7480;43.124;25.686;2024-01-15T06:07:03;12.97;;;8.30;;
14776;SDS011;7480;43.124;25.686;2024-01-15T06:09:30;17.37;;;6.27;;
14776;SDS011;7480;43.124;25.686;2024-01-15T06:11:58;20.70;;;9.87;;
14776;SDS011;7480;43.124;25.686;2024-01-15T06:14:24;16.03;;;8.83;;
14776;SDS011;7480;43.124;25.686;2024-01-15T06:16:51;27.13;;;14.73;;
14776;SDS011;7480;43.124;25.686;2024-01-15T06:19:18;16.17;;;9.40;;
14776;SDS011;7480;43.124;25.686;2024-01-15T06:21:45;11.47;;;5.53;;
14776;SDS011;7480;43.124;25.686;2024-01-15T06:24:12;45.57;;;20.90;;
14776;SDS011;7480;43.124;25.686;2024-01-15T06:26:40;21.97;;;11.20;;
14776;SDS011;7480;43.124;25.686;2024-01-15T06:29:06;18.00;;;10.53;;
14776;SDS011;7480;43.124;25.686;2024-01-15T06:31:34;25.40;;;10.37;;
14776;SDS011;7480;43.124;25.686;2024-01-15T06:34:01;21.77;;;11.37;;
14776;SDS011;7480;43.124;25.686;2024-01-15T06:36:28;18.27;;;8.67;;
14776;SDS011;7480;43.124;25.686;2024-01-15T06:38:55;11.77;;;6.40;;
14776;SDS011;7480;43.124;25.686;2024-01-15T06:41:22;9.00;;;5.10;;
14776;SDS011;7480;43.124;25.686;2024-01-15T06:43:49;8.17;;;5.73;;
14776;SDS011;7480;43.124;25.686;2024-01-15T06:46:24;6.77;;;4.10;;
14776;SDS011;7480;43.124;25.686;2024-01-15T06:48:51;6.23;;;3.90;;
14776;SDS011;7480;43.124;25.686;2024-01-15T06:51:17;7.93;;;4.07;;
14776;SDS011;7480;43.124;25.686;2024-01-15T06:53:44;7.90;;;4.27;;
14776;SDS011;7480;43.124;25.686;2024-01-15T06:56:11;6.43;;;3.50;;
14776;SDS011;7480;43.124;25.686;2024-01-15T06:58:37;7.33;;;3.47;;
14776;SDS011;7480;43.124;25.686;2024-01-15T07:01:04;13.77;;;8.10;;
14776;SDS011;7480;43.124;25.686;2024-01-15T07:03:32;26.50;;;16.10;;
14776;SDS011;7480;43.124;25.686;2024-01-15T07:05:59;37.23;;;20.73;;
14776;SDS011;7480;43.124;25.686;2024-01-15T07:08:25;31.13;;;16.70;;
14776;SDS011;7480;43.124;25.686;2024-01-15T07:10:52;35.07;;;18.60;;
14776;SDS011;7480;43.124;25.686;2024-01-15T07:13:19;29.93;;;16.63;;
14776;SDS011;7480;43.124;25.686;2024-01-15T07:15:45;32.70;;;15.07;;
14776;SDS011;7480;43.124;25.686;2024-01-15T07:18:12;30.97;;;14.57;;
14776;SDS011;7480;43.124;25.686;2024-01-15T07:20:39;18.10;;;10.13;;
14776;SDS011;7480;43.124;25.686;2024-01-15T07:23:05;16.17;;;8.90;;
14776;SDS011;7480;43.124;25.686;2024-01-15T07:25:33;14.33;;;8.80;;
14776;SDS011;7480;43.124;25.686;2024-01-15T07:28:00;80.20;;;36.80;;
14776;SDS011;7480;43.124;25.686;2024-01-15T07:30:27;48.77;;;31.57;;
14776;SDS011;7480;43.124;25.686;2024-01-15T07:32:53;15.40;;;9.27;;
14776;SDS011;7480;43.124;25.686;2024-01-15T07:35:20;10.17;;;5.63;;
14776;SDS011;7480;43.124;25.686;2024-01-15T07:37:47;9.77;;;5.10;;
14776;SDS011;7480;43.124;25.686;2024-01-15T07:40:14;4.73;;;2.80;;
14776;SDS011;7480;43.124;25.686;2024-01-15T07:42:41;6.97;;;3.60;;
14776;SDS011;7480;43.124;25.686;2024-01-15T07:45:10;4.77;;;3.10;;
14776;SDS011;7480;43.124;25.686;2024-01-15T07:47:36;5.73;;;4.40;;
14776;SDS011;7480;43.124;25.686;2024-01-15T07:50:03;6.73;;;4.27;;
14776;SDS011;7480;43.124;25.686;2024-01-15T07:52:32;6.10;;;5.17;;
14776;SDS011;7480;43.124;25.686;2024-01-15T07:54:58;4.43;;;3.50;;
14776;SDS011;7480;43.124;25.686;2024-01-15T07:57:26;3.77;;;2.43;;
14776;SDS011;7480;43.124;25.686;2024-01-15T07:59:53;6.17;;;3.47;;
14776;SDS011;7480;43.124;25.686;2024-01-15T08:02:20;5.77;;;3.43;;
14776;SDS011;7480;43.124;25.686;2024-01-15T08:04:48;5.37;;;3.80;;
14776;SDS011;7480;43.124;25.686;2024-01-15T08:07:14;5.47;;;3.03;;
14776;SDS011;7480;43.124;25.686;2024-01-15T08:09:42;5.40;;;2.87;;
14776;SDS011;7480;43.124;25.686;2024-01-15T08:12:08;5.53;;;3.70;;
14776;SDS011;7480;43.124;25.686;2024-01-15T08:14:36;5.53;;;3.27;;
14776;SDS011;7480;43.124;25.686;2024-01-15T08:17:03;5.80;;;3.20;;
14776;SDS011;7480;43.124;25.686;2024-01-15T08:19:29;6.37;;;4.20;;
14776;SDS011;7480;43.124;25.686;2024-01-15T08:21:56;8.47;;;4.13;;
14776;SDS011;7480;43.124;25.686;2024-01-15T08:24:23;23.83;;;13.93;;
14776;SDS011;7480;43.124;25.686;2024-01-15T08:26:50;23.10;;;12.67;;
14776;SDS011;7480;43.124;25.686;2024-01-15T08:29:16;19.57;;;11.17;;
14776;SDS011;7480;43.124;25.686;2024-01-15T08:31:45;9.57;;;6.50;;
14776;SDS011;7480;43.124;25.686;2024-01-15T08:34:12;7.63;;;5.63;;
14776;SDS011;7480;43.124;25.686;2024-01-15T08:36:39;10.57;;;6.97;;
14776;SDS011;7480;43.124;25.686;2024-01-15T08:39:07;10.23;;;6.90;;
14776;SDS011;7480;43.124;25.686;2024-01-15T08:41:35;12.07;;;7.00;;
14776;SDS011;7480;43.124;25.686;2024-01-15T08:44:02;9.83;;;6.77;;
14776;SDS011;7480;43.124;25.686;2024-01-15T08:46:32;12.37;;;7.70;;
14776;SDS011;7480;43.124;25.686;2024-01-15T08:48:58;12.60;;;7.70;;
14776;SDS011;7480;43.124;25.686;2024-01-15T08:51:25;14.90;;;8.80;;
14776;SDS011;7480;43.124;25.686;2024-01-15T08:53:52;14.87;;;8.97;;
14776;SDS011;7480;43.124;25.686;2024-01-15T08:56:18;11.83;;;8.37;;
14776;SDS011;7480;43.124;25.686;2024-01-15T08:58:45;9.40;;;7.33;;
14776;SDS011;7480;43.124;25.686;2024-01-15T09:01:13;12.20;;;8.57;;
14776;SDS011;7480;43.124;25.686;2024-01-15T09:03:40;15.43;;;8.50;;
14776;SDS011;7480;43.124;25.686;2024-01-15T09:06:10;15.43;;;8.27;;
14776;SDS011;7480;43.124;25.686;2024-01-15T09:08:37;16.63;;;7.93;;
14776;SDS011;7480;43.124;25.686;2024-01-15T09:11:04;12.57;;;7.83;;
14776;SDS011;7480;43.124;25.686;2024-01-15T09:13:30;18.07;;;7.47;;
14776;SDS011;7480;43.124;25.686;2024-01-15T09:15:58;9.67;;;6.20;;
14776;SDS011;7480;43.124;25.686;2024-01-15T09:18:24;14.20;;;7.63;;
14776;SDS011;7480;43.124;25.686;2024-01-15T09:20:51;15.70;;;9.33;;
14776;SDS011;7480;43.124;25.686;2024-01-15T09:23:18;18.97;;;11.70;;
14776;SDS011;7480;43.124;25.686;2024-01-15T09:25:44;46.87;;;22.13;;
14776;SDS011;7480;43.124;25.686;2024-01-15T09:28:11;46.93;;;23.70;;
14776;SDS011;7480;43.124;25.686;2024-01-15T09:30:38;21.57;;;11.43;;
14776;SDS011;7480;43.124;25.686;2024-01-15T09:33:04;15.17;;;7.83;;
14776;SDS011;7480;43.124;25.686;2024-01-15T09:35:31;16.30;;;9.73;;
14776;SDS011;7480;43.124;25.686;2024-01-15T09:37:58;22.67;;;13.80;;
14776;SDS011;7480;43.124;25.686;2024-01-15T09:40:25;33.83;;;16.77;;
14776;SDS011;7480;43.124;25.686;2024-01-15T09:42:57;18.63;;;11.07;;
14776;SDS011;7480;43.124;25.686;2024-01-15T09:45:24;17.67;;;10.90;;
14776;SDS011;7480;43.124;25.686;2024-01-15T09:47:50;13.27;;;8.17;;
14776;SDS011;7480;43.124;25.686;2024-01-15T09:50:17;12.77;;;7.13;;
14776;SDS011;7480;43.124;25.686;2024-01-15T09:52:44;10.17;;;6.33;;
14776;SDS011;7480;43.124;25.686;2024-01-15T09:55:12;14.70;;;8.13;;
14776;SDS011;7480;43.124;25.686;2024-01-15T09:57:39;13.00;;;8.53;;
14776;SDS011;7480;43.124;25.686;2024-01-15T10:00:06;11.77;;;7.73;;
14776;SDS011;7480;43.124;25.686;2024-01-15T10:02:33;15.03;;;10.30;;
14776;SDS011;7480;43.124;25.686;2024-01-15T10:05:05;21.00;;;12.57;;
14776;SDS011;7480;43.124;25.686;2024-01-15T10:07:32;21.33;;;11.17;;
14776;SDS011;7480;43.124;25.686;2024-01-15T10:10:01;17.63;;;11.37;;
14776;SDS011;7480;43.124;25.686;2024-01-15T10:12:29;12.83;;;7.70;;
14776;SDS011;7480;43.124;25.686;2024-01-15T10:14:57;15.67;;;9.50;;
14776;SDS011;7480;43.124;25.686;2024-01-15T10:17:24;13.23;;;8.53;;
14776;SDS011;7480;43.124;25.686;2024-01-15T10:19:50;14.73;;;9.90;;
14776;SDS011;7480;43.124;25.686;2024-01-15T10:22:17;20.43;;;12.83;;
14776;SDS011;7480;43.124;25.686;2024-01-15T10:24:45;15.93;;;11.20;;
14776;SDS011;7480;43.124;25.686;2024-01-15T10:27:14;25.57;;;10.13;;
14776;SDS011;7480;43.124;25.686;2024-01-15T10:29:41;23.33;;;13.57;;
14776;SDS011;7480;43.124;25.686;2024-01-15T10:32:08;23.30;;;11.60;;
14776;SDS011;7480;43.124;25.686;2024-01-15T10:34:39;18.40;;;9.63;;
14776;SDS011;7480;43.124;25.686;2024-01-15T10:37:08;14.60;;;9.83;;
14776;SDS011;7480;43.124;25.686;2024-01-15T10:39:35;17.70;;;11.23;;
14776;SDS011;7480;43.124;25.686;2024-01-15T10:42:02;14.97;;;10.23;;
14776;SDS011;7480;43.124;25.686;2024-01-15T10:44:29;13.10;;;9.33;;
14776;SDS011;7480;43.124;25.686;2024-01-15T10:46:56;12.77;;;9.30;;
14776;SDS011;7480;43.124;25.686;2024-01-15T10:49:23;14.93;;;8.60;;
14776;SDS011;7480;43.124;25.686;2024-01-15T10:51:58;13.70;;;8.90;;
14776;SDS011;7480;43.124;25.686;2024-01-15T10:54:25;12.27;;;7.70;;
14776;SDS011;7480;43.124;25.686;2024-01-15T10:56:53;14.63;;;8.43;;
14776;SDS011;7480;43.124;25.686;2024-01-15T10:59:20;12.40;;;8.60;;
14776;SDS011;7480;43.124;25.686;2024-01-15T11:01:51;16.30;;;8.97;;
14776;SDS011;7480;43.124;25.686;2024-01-15T11:04:21;15.17;;;10.13;;
14776;SDS011;7480;43.124;25.686;2024-01-15T11:06:51;20.57;;;9.27;;
14776;SDS011;7480;43.124;25.686;2024-01-15T11:09:18;11.53;;;7.37;;
14776;SDS011;7480;43.124;25.686;2024-01-15T11:11:46;14.20;;;7.53;;
14776;SDS011;7480;43.124;25.686;2024-01-15T11:19:48;7.50;;;4.80;;
14776;SDS011;7480;43.124;25.686;2024-01-15T11:25:02;7.97;;;5.07;;
14776;SDS011;7480;43.124;25.686;2024-01-15T11:27:42;8.17;;;4.47;;
14776;SDS011;7480;43.124;25.686;2024-01-15T11:30:10;11.93;;;7.17;;
14776;SDS011;7480;43.124;25.686;2024-01-15T11:32:37;5.47;;;4.33;;
14776;SDS011;7480;43.124;25.686;2024-01-15T11:35:08;3.93;;;2.77;;
14776;SDS011;7480;43.124;25.686;2024-01-15T11:40:19;4.17;;;2.70;;
14776;SDS011;7480;43.124;25.686;2024-01-15T11:42:46;4.00;;;2.57;;
14776;SDS011;7480;43.124;25.686;2024-01-15T11:45:20;4.07;;;2.50;;
14776;SDS011;7480;43.124;25.686;2024-01-15T11:50:33;5.60;;;3.63;;
14776;SDS011;7480;43.124;25.686;2024-01-15T11:53:01;5.33;;;4.00;;
14776;SDS011;7480;43.124;25.686;2024-01-15T11:55:38;3.83;;;3.03;;
14776;SDS011;7480;43.124;25.686;2024-01-15T11:58:09;4.50;;;3.00;;
14776;SDS011;7480;43.124;25.686;2024-01-15T12:00:45;3.70;;;2.90;;
14776;SDS011;7480;43.124;25.686;2024-01-15T12:03:14;5.33;;;3.80;;
14776;SDS011;7480;43.124;25.686;2024-01-15T12:05:41;3.80;;;3.40;;
14776;SDS011;7480;43.124;25.686;2024-01-15T12:08:11;5.03;;;3.40;;
14776;SDS011;7480;43.124;25.686;2024-01-15T12:10:38;4.17;;;2.93;;
14776;SDS011;7480;43.124;25.686;2024-01-15T12:13:12;4.00;;;3.17;;
14776;SDS011;7480;43.124;25.686;2024-01-15T12:15:39;6.63;;;2.90;;
14776;SDS011;7480;43.124;25.686;2024-01-15T12:18:08;3.87;;;3.10;;
14776;SDS011;7480;43.124;25.686;2024-01-15T12:20:36;3.50;;;2.70;;
14776;SDS011;7480;43.124;25.686;2024-01-15T12:23:03;6.27;;;3.70;;
14776;SDS011;7480;43.124;25.686;2024-01-15T12:25:33;12.70;;;6.93;;
14776;SDS011;7480;43.124;25.686;2024-01-15T12:28:00;4.77;;;3.30;;
14776;SDS011;7480;43.124;25.686;2024-01-15T12:30:28;7.03;;;3.63;;
14776;SDS011;7480;43.124;25.686;2024-01-15T12:32:55;3.43;;;2.60;;
14776;SDS011;7480;43.124;25.686;2024-01-15T12:35:23;3.03;;;2.63;;
14776;SDS011;7480;43.124;25.686;2024-01-15T12:37:50;4.73;;;2.90;;
14776;SDS011;7480;43.124;25.686;2024-01-15T12:40:20;4.17;;;3.00;;
14776;SDS011;7480;43.124;25.686;2024-01-15T12:42:47;4.83;;;3.53;;
14776;SDS011;7480;43.124;25.686;2024-01-15T12:45:14;6.73;;;4.30;;
14776;SDS011;7480;43.124;25.686;2024-01-15T12:47:41;5.83;;;4.13;;
14776;SDS011;7480;43.124;25.686;2024-01-15T12:50:11;5.33;;;3.37;;
14776;SDS011;7480;43.124;25.686;2024-01-15T12:52:45;7.03;;;3.47;;
14776;SDS011;7480;43.124;25.686;2024-01-15T12:55:14;7.57;;;3.63;;
14776;SDS011;7480;43.124;25.686;2024-01-15T12:57:42;5.73;;;3.90;;
14776;SDS011;7480;43.124;25.686;2024-01-15T13:00:08;5.27;;;3.83;;
14776;SDS011;7480;43.124;25.686;2024-01-15T13:02:39;7.57;;;4.10;;
14776;SDS011;7480;43.124;25.686;2024-01-15T13:05:08;6.43;;;4.60;;
14776;SDS011;7480;43.124;25.686;2024-01-15T13:07:38;5.57;;;4.07;;
14776;SDS011;7480;43.124;25.686;2024-01-15T13:10:05;7.77;;;4.63;;
14776;SDS011;7480;43.124;25.686;2024-01-15T13:12:33;7.90;;;4.40;;
14776;SDS011;7480;43.124;25.686;2024-01-15T13:14:59;10.13;;;6.07;;
14776;SDS011;7480;43.124;25.686;2024-01-15T13:17:26;16.23;;;6.90;;
14776;SDS011;7480;43.124;25.686;2024-01-15T13:19:53;10.03;;;6.33;;
14776;SDS011;7480;43.124;25.686;2024-01-15T13:22:19;7.30;;;4.80;;
14776;SDS011;7480;43.124;25.686;2024-01-15T13:24:48;7.47;;;4.60;;
14776;SDS011;7480;43.124;25.686;2024-01-15T13:27:15;8.03;;;4.87;;
14776;SDS011;7480;43.124;25.686;2024-01-15T13:29:41;6.00;;;4.00;;
14776;SDS011;7480;43.124;25.686;2024-01-15T13:32:08;8.30;;;4.80;;
14776;SDS011;7480;43.124;25.686;2024-01-15T13:34:36;4.53;;;2.97;;
14776;SDS011;7480;43.124;25.686;2024-01-15T13:37:03;5.80;;;3.90;;
14776;SDS011;7480;43.124;25.686;2024-01-15T13:39:29;6.33;;;3.77;;
14776;SDS011;7480;43.124;25.686;2024-01-15T13:41:59;6.50;;;3.37;;
14776;SDS011;7480;43.124;25.686;2024-01-15T13:44:26;4.60;;;3.40;;
14776;SDS011;7480;43.124;25.686;2024-01-15T13:46:54;4.47;;;3.33;;
14776;SDS011;7480;43.124;25.686;2024-01-15T13:49:20;4.13;;;3.17;;
14776;SDS011;7480;43.124;25.686;2024-01-15T13:51:47;4.53;;;3.50;;
14776;SDS011;7480;43.124;25.686;2024-01-15T13:54:14;5.63;;;4.37;;
14776;SDS011;7480;43.124;25.686;2024-01-15T13:56:40;4.77;;;3.07;;
14776;SDS011;7480;43.124;25.686;2024-01-15T13:59:07;3.80;;;3.30;;
14776;SDS011;7480;43.124;25.686;2024-01-15T14:01:35;4.73;;;2.93;;
14776;SDS011;7480;43.124;25.686;2024-01-15T14:04:02;4.40;;;2.90;;
14776;SDS011;7480;43.124;25.686;2024-01-15T14:06:29;5.67;;;3.00;;
14776;SDS011;7480;43.124;25.686;2024-01-15T14:08:56;6.83;;;3.77;;
14776;SDS011;7480;43.124;25.686;2024-01-15T14:11:22;3.97;;;2.80;;
14776;SDS011;7480;43.124;25.686;2024-01-15T14:13:49;4.00;;;2.87;;
14776;SDS011;7480;43.124;25.686;2024-01-15T14:16:16;3.87;;;2.87;;
14776;SDS011;7480;43.124;25.686;2024-01-15T14:18:51;4.80;;;3.17;;
14776;SDS011;7480;43.124;25.686;2024-01-15T14:21:18;4.67;;;3.70;;
14776;SDS011;7480;43.124;25.686;2024-01-15T14:23:44;15.87;;;9.47;;
14776;SDS011;7480;43.124;25.686;2024-01-15T14:26:11;6.63;;;4.10;;
14776;SDS011;7480;43.124;25.686;2024-01-15T14:28:39;7.97;;;5.60;;
14776;SDS011;7480;43.124;25.686;2024-01-15T14:31:06;6.77;;;4.37;;
14776;SDS011;7480;43.124;25.686;2024-01-15T14:33:33;6.97;;;4.83;;
14776;SDS011;7480;43.124;25.686;2024-01-15T14:36:04;5.60;;;3.70;;
14776;SDS011;7480;43.124;25.686;2024-01-15T14:38:31;8.77;;;5.27;;
14776;SDS011;7480;43.124;25.686;2024-01-15T14:40:58;5.23;;;3.87;;
14776;SDS011;7480;43.124;25.686;2024-01-15T14:43:24;6.67;;;4.13;;
14776;SDS011;7480;43.124;25.686;2024-01-15T14:45:51;5.77;;;4.30;;
14776;SDS011;7480;43.124;25.686;2024-01-15T14:48:17;7.50;;;4.83;;
14776;SDS011;7480;43.124;25.686;2024-01-15T14:50:45;7.03;;;4.00;;
14776;SDS011;7480;43.124;25.686;2024-01-15T14:53:12;11.73;;;5.80;;
14776;SDS011;7480;43.124;25.686;2024-01-15T14:55:38;8.93;;;5.17;;